createdAt,value
2022-10-19T00:01:07.244Z,12.90
2022-10-19T00:03:35.636Z,12.90
2022-10-19T00:06:25.908Z,12.90
2022-10-19T00:08:57.048Z,12.90
2022-10-19T00:11:24.644Z,12.90
2022-10-19T00:13:53.084Z,12.90
2022-10-19T00:16:20.466Z,12.90
2022-10-19T00:18:47.492Z,12.90
2022-10-19T00:21:17.253Z,12.90
2022-10-19T00:23:45.033Z,13.00
2022-10-19T00:26:13.314Z,12.90
2022-10-19T00:28:41.588Z,12.90
2022-10-19T00:31:15.079Z,12.90
2022-10-19T00:33:44.472Z,12.90
2022-10-19T00:36:18.235Z,12.90
2022-10-19T00:38:46.060Z,13.00
2022-10-19T00:41:33.867Z,13.00
2022-10-19T00:44:03.308Z,13.00
2022-10-19T00:46:32.785Z,13.00
2022-10-19T00:49:17.742Z,13.00
2022-10-19T00:51:52.144Z,13.00
2022-10-19T00:54:19.625Z,13.10
2022-10-19T00:56:49.600Z,13.00
2022-10-19T00:59:20.050Z,13.10
2022-10-19T01:01:49.090Z,13.00
2022-10-19T01:04:16.239Z,13.00
2022-10-19T01:06:43.565Z,13.00
2022-10-19T01:09:10.701Z,13.00
2022-10-19T01:11:52.669Z,13.00
2022-10-19T01:14:59.165Z,12.90
2022-10-19T01:17:50.308Z,12.80
2022-10-19T01:20:26.421Z,12.90
2022-10-19T01:23:22.710Z,12.90
2022-10-19T01:26:04.809Z,12.90
2022-10-19T01:29:03.287Z,12.80
2022-10-19T01:31:47.185Z,12.90
2022-10-19T01:34:30.621Z,12.80
2022-10-19T01:37:25.657Z,12.80
2022-10-19T01:40:04.938Z,12.80
2022-10-19T01:42:52.421Z,12.70
2022-10-19T01:45:28.835Z,12.60
2022-10-19T01:48:11.274Z,12.60
2022-10-19T01:51:09.474Z,12.50
2022-10-19T01:53:42.811Z,12.50
2022-10-19T01:56:11.488Z,12.50
2022-10-19T01:58:41.145Z,12.50
2022-10-19T02:03:40.529Z,12.40
2022-10-19T02:06:10.192Z,12.40
2022-10-19T02:09:03.240Z,12.20
2022-10-19T02:11:31.390Z,12.20
2022-10-19T02:14:05.129Z,12.20
2022-10-19T02:16:47.581Z,12.30
2022-10-19T02:19:16.610Z,12.30
2022-10-19T02:21:43.953Z,12.30
2022-10-19T02:24:16.967Z,12.30
2022-10-19T02:26:57.031Z,12.30
2022-10-19T02:29:31.538Z,12.20
2022-10-19T02:32:00.860Z,12.20
2022-10-19T02:34:31.770Z,12.10
2022-10-19T02:37:02.108Z,12.10
2022-10-19T02:39:34.025Z,12.10
2022-10-19T02:42:20.623Z,12.00
2022-10-19T02:45:00.288Z,12.00
2022-10-19T02:47:59.440Z,12.00
2022-10-19T02:50:27.030Z,12.00
2022-10-19T02:52:54.074Z,11.90
2022-10-19T02:55:21.129Z,12.00
2022-10-19T02:57:48.222Z,12.00
2022-10-19T03:00:15.293Z,12.00
2022-10-19T03:02:42.771Z,11.90
2022-10-19T03:05:10.170Z,11.90
2022-10-19T03:07:37.490Z,11.80
2022-10-19T03:10:04.902Z,11.80
2022-10-19T03:12:32.120Z,11.70
2022-10-19T03:14:59.123Z,11.80
2022-10-19T03:17:26.127Z,11.70
2022-10-19T03:19:53.238Z,11.70
2022-10-19T03:22:20.283Z,11.60
2022-10-19T03:24:47.333Z,11.60
2022-10-19T03:27:14.329Z,11.50
2022-10-19T03:29:41.587Z,11.50
2022-10-19T03:32:08.629Z,11.50
2022-10-19T03:34:35.791Z,11.50
2022-10-19T03:37:02.908Z,11.50
2022-10-19T03:39:30.061Z,11.50
2022-10-19T03:41:57.131Z,11.60
2022-10-19T03:44:24.210Z,11.60
2022-10-19T03:46:51.234Z,11.50
2022-10-19T03:49:18.367Z,11.60
2022-10-19T03:51:45.404Z,11.70
2022-10-19T03:54:14.991Z,11.60
2022-10-19T03:56:42.875Z,11.70
2022-10-19T03:59:14.392Z,11.70
2022-10-19T04:01:44.747Z,11.70
2022-10-19T04:04:15.104Z,11.80
2022-10-19T04:06:44.531Z,11.70
2022-10-19T04:09:17.762Z,11.80
2022-10-19T04:11:45.429Z,11.80
2022-10-19T04:14:19.219Z,11.80
2022-10-19T04:16:54.304Z,11.80
2022-10-19T04:19:21.353Z,11.70
2022-10-19T04:21:49.769Z,11.80
2022-10-19T04:24:18.818Z,11.80
2022-10-19T04:26:50.939Z,11.80
2022-10-19T04:29:21.957Z,11.80
2022-10-19T04:32:05.310Z,11.90
2022-10-19T04:34:39.184Z,11.90
2022-10-19T04:37:27.234Z,11.90
2022-10-19T04:39:58.193Z,11.90
2022-10-19T04:42:26.254Z,11.90
2022-10-19T04:44:53.584Z,11.90
2022-10-19T04:47:20.713Z,11.90
2022-10-19T04:49:47.819Z,12.00
2022-10-19T04:52:14.869Z,12.00
2022-10-19T04:54:41.908Z,12.00
2022-10-19T04:57:08.985Z,12.00
2022-10-19T04:59:36.048Z,12.00
2022-10-19T05:02:03.135Z,12.00
2022-10-19T05:04:30.247Z,12.00
2022-10-19T05:06:57.301Z,12.00
2022-10-19T05:09:24.371Z,12.10
2022-10-19T05:11:51.470Z,12.10
2022-10-19T05:14:18.537Z,12.10
2022-10-19T05:16:45.622Z,12.10
2022-10-19T05:19:15.807Z,12.20
2022-10-19T05:21:42.887Z,12.20
2022-10-19T05:24:13.010Z,12.20
2022-10-19T05:26:40.034Z,12.20
2022-10-19T05:29:07.092Z,12.20
2022-10-19T05:31:34.468Z,12.20
2022-10-19T05:34:04.111Z,12.20
2022-10-19T05:36:34.891Z,12.20
2022-10-19T05:39:07.705Z,12.20
2022-10-19T05:41:35.180Z,12.30
2022-10-19T05:44:03.177Z,12.30
2022-10-19T05:46:32.021Z,12.30
2022-10-19T05:49:00.098Z,12.40
2022-10-19T05:51:28.138Z,12.40
2022-10-19T05:53:55.975Z,12.40
2022-10-19T05:56:26.738Z,12.40
2022-10-19T05:58:55.325Z,12.50
2022-10-19T06:01:22.701Z,12.50
2022-10-19T06:03:54.593Z,12.50
2022-10-19T06:06:22.151Z,12.60
2022-10-19T06:08:50.025Z,12.60
2022-10-19T06:11:27.419Z,12.80
2022-10-19T06:13:56.576Z,12.80
2022-10-19T06:16:24.790Z,12.90
2022-10-19T06:18:59.058Z,13.00
2022-10-19T06:21:31.093Z,13.10
2022-10-19T06:24:16.039Z,13.10
2022-10-19T06:26:44.775Z,13.30
2022-10-19T06:29:15.099Z,13.40
2022-10-19T06:31:49.420Z,13.50
2022-10-19T06:34:19.496Z,13.60
2022-10-19T06:36:47.399Z,13.70
2022-10-19T06:39:17.834Z,13.70
2022-10-19T06:41:50.619Z,13.70
2022-10-19T06:44:29.628Z,13.70
2022-10-19T06:46:57.495Z,13.80
2022-10-19T06:49:27.944Z,13.80
2022-10-19T06:52:09.099Z,13.90
2022-10-19T06:54:42.409Z,14.10
2022-10-19T06:57:23.703Z,14.20
2022-10-19T06:59:57.112Z,14.30
2022-10-19T07:02:43.156Z,14.20
2022-10-19T07:05:15.875Z,14.30
2022-10-19T07:07:58.320Z,14.70
2022-10-19T07:10:30.884Z,15.40
2022-10-19T07:13:01.713Z,15.90
2022-10-19T07:15:31.340Z,16.40
2022-10-19T07:18:04.339Z,16.50
2022-10-19T07:20:34.918Z,16.80
2022-10-19T07:23:09.600Z,17.20
2022-10-19T07:25:46.968Z,17.70
2022-10-19T07:28:27.973Z,18.40
2022-10-19T07:30:58.266Z,18.40
2022-10-19T07:33:33.445Z,18.10
2022-10-19T07:36:13.817Z,17.90
2022-10-19T07:39:01.043Z,18.00
2022-10-19T07:41:37.109Z,17.80
2022-10-19T07:44:15.940Z,17.60
2022-10-19T07:46:51.058Z,17.50
2022-10-19T07:49:38.942Z,17.30
2022-10-19T07:52:17.410Z,17.10
2022-10-19T07:54:57.168Z,16.80
2022-10-19T07:57:45.006Z,16.60
2022-10-19T08:00:22.792Z,16.50
2022-10-19T08:02:59.910Z,16.40
2022-10-19T08:05:49.062Z,16.40
2022-10-19T08:08:22.286Z,16.50
2022-10-19T08:10:53.680Z,16.60
2022-10-19T08:13:25.432Z,18.00
2022-10-19T08:16:03.913Z,18.10
2022-10-19T08:18:33.449Z,18.60
2022-10-19T08:21:03.475Z,18.30
2022-10-19T08:23:34.467Z,18.00
2022-10-19T08:26:01.894Z,18.10
2022-10-19T08:28:28.932Z,18.60
2022-10-19T08:30:58.994Z,18.90
2022-10-19T08:33:27.034Z,18.70
2022-10-19T08:35:54.215Z,18.80
2022-10-19T08:38:21.346Z,19.50
2022-10-19T08:40:48.612Z,19.60
2022-10-19T08:43:39.790Z,19.50
2022-10-19T08:46:22.780Z,19.20
2022-10-19T08:48:53.550Z,18.90
2022-10-19T08:51:28.901Z,19.00
2022-10-19T08:54:05.556Z,20.00
2022-10-19T08:56:51.938Z,21.10
2022-10-19T08:59:53.651Z,21.20
2022-10-19T09:02:56.312Z,20.10
2022-10-19T09:05:35.202Z,19.60
2022-10-19T09:08:12.104Z,19.00
2022-10-19T09:10:53.929Z,18.70
2022-10-19T09:14:04.100Z,18.60
2022-10-19T09:16:41.270Z,18.30
2022-10-19T09:19:32.998Z,18.40
2022-10-19T09:22:35.095Z,18.30
2022-10-19T09:25:29.670Z,18.20
2022-10-19T09:28:36.433Z,18.10
2022-10-19T09:31:34.940Z,18.00
2022-10-19T09:34:27.446Z,17.90
2022-10-19T09:36:57.505Z,17.90
2022-10-19T09:39:29.305Z,17.90
2022-10-19T09:41:58.098Z,17.90
2022-10-19T09:44:26.637Z,17.90
2022-10-19T09:47:07.993Z,18.00
2022-10-19T09:49:44.601Z,18.10
2022-10-19T09:52:36.688Z,18.20
2022-10-19T09:55:11.167Z,18.30
2022-10-19T09:57:43.274Z,18.40
2022-10-19T10:00:32.420Z,19.70
2022-10-19T10:02:59.537Z,24.70
2022-10-19T10:05:48.435Z,25.90
2022-10-19T10:08:19.852Z,26.90
2022-10-19T10:11:17.605Z,25.20
2022-10-19T10:13:49.785Z,25.50
2022-10-19T10:16:20.010Z,24.30
2022-10-19T10:19:12.019Z,23.80
2022-10-19T10:21:55.676Z,22.90
2022-10-19T10:24:25.532Z,22.00
2022-10-19T10:26:55.676Z,23.00
2022-10-19T10:29:24.641Z,23.40
2022-10-19T10:32:11.955Z,22.70
2022-10-19T10:35:02.684Z,22.50
2022-10-19T10:37:46.662Z,22.20
2022-10-19T10:40:28.126Z,21.80
2022-10-19T10:43:01.580Z,22.10
2022-10-19T10:45:37.567Z,22.00
2022-10-19T10:48:32.349Z,21.80
2022-10-19T10:51:01.903Z,22.00
2022-10-19T10:53:37.047Z,21.80
2022-10-19T10:56:06.553Z,22.00
2022-10-19T10:58:43.799Z,21.90
2022-10-19T11:01:20.096Z,21.80
2022-10-19T11:03:53.125Z,21.20
2022-10-19T11:09:01.132Z,20.80
2022-10-19T11:11:48.239Z,20.70
2022-10-19T11:14:30.746Z,20.70
2022-10-19T11:17:06.480Z,20.60
2022-10-19T11:19:42.207Z,20.80
2022-10-19T11:22:31.257Z,20.80
2022-10-19T11:25:37.506Z,20.70
2022-10-19T11:28:27.752Z,20.80
2022-10-19T11:31:14.314Z,20.90
2022-10-19T11:33:52.712Z,20.60
2022-10-19T11:36:59.020Z,20.70
2022-10-19T11:39:51.017Z,20.80
2022-10-19T11:42:20.596Z,20.70
2022-10-19T11:45:25.592Z,20.80
2022-10-19T11:48:05.844Z,20.60
2022-10-19T11:51:17.375Z,20.70
2022-10-19T11:54:14.611Z,20.60
2022-10-19T11:57:06.420Z,20.60
2022-10-19T12:00:08.267Z,20.70
2022-10-19T12:03:03.745Z,20.80
2022-10-19T12:05:54.386Z,20.80
2022-10-19T12:08:30.454Z,20.70
2022-10-19T12:11:56.045Z,20.60
2022-10-19T12:14:31.232Z,20.60
2022-10-19T12:17:05.817Z,20.50
2022-10-19T12:19:40.785Z,20.50
2022-10-19T12:22:26.994Z,20.40
2022-10-19T12:25:00.655Z,20.40
2022-10-19T12:27:47.819Z,20.50
2022-10-19T12:30:16.218Z,20.50
2022-10-19T12:33:22.886Z,20.40
2022-10-19T12:35:49.941Z,20.30
2022-10-19T12:38:26.638Z,20.10
2022-10-19T12:41:01.870Z,20.10
2022-10-19T12:44:10.939Z,20.20
2022-10-19T12:46:53.842Z,20.20
2022-10-19T12:49:31.436Z,20.30
2022-10-19T12:52:00.724Z,20.20
2022-10-19T12:54:30.213Z,20.10
2022-10-19T12:57:01.127Z,20.20
2022-10-19T12:59:36.671Z,20.10
2022-10-19T13:05:27.166Z,20.30
2022-10-19T13:07:57.632Z,20.10
2022-10-19T13:10:32.174Z,20.10
2022-10-19T13:13:04.696Z,20.20
2022-10-19T13:15:38.224Z,20.10
2022-10-19T13:18:17.180Z,20.00
2022-10-19T13:21:03.591Z,20.00
2022-10-19T13:23:34.558Z,20.10
2022-10-19T13:26:36.516Z,20.00
2022-10-19T13:29:03.806Z,19.80
2022-10-19T13:31:31.912Z,19.80
2022-10-19T13:33:59.275Z,19.80
2022-10-19T13:36:27.196Z,19.80
2022-10-19T13:39:00.257Z,19.80
2022-10-19T13:41:34.190Z,19.80
2022-10-19T13:44:07.704Z,19.70
2022-10-19T13:46:42.172Z,19.70
2022-10-19T13:49:32.659Z,19.80
2022-10-19T13:52:15.129Z,19.80
2022-10-19T13:55:00.734Z,19.80
2022-10-19T13:57:52.945Z,19.80
2022-10-19T14:00:28.618Z,19.80
2022-10-19T14:03:19.193Z,19.70
2022-10-19T14:06:07.684Z,19.80
2022-10-19T14:09:00.331Z,19.90
2022-10-19T14:11:33.405Z,19.80
2022-10-19T14:14:09.535Z,19.80
2022-10-19T14:16:56.020Z,19.70
2022-10-19T14:19:41.017Z,19.70
2022-10-19T14:22:26.442Z,19.70
2022-10-19T14:25:02.286Z,19.80
2022-10-19T14:27:31.190Z,19.80
2022-10-19T14:29:58.462Z,19.80
2022-10-19T14:32:28.754Z,19.80
2022-10-19T14:37:37.835Z,19.80
2022-10-19T14:40:26.859Z,19.70
2022-10-19T14:42:56.903Z,19.60
2022-10-19T14:45:33.387Z,19.50
2022-10-19T14:48:17.245Z,19.60
2022-10-19T14:50:52.830Z,19.70
2022-10-19T14:53:39.847Z,19.70
2022-10-19T14:56:29.440Z,19.60
2022-10-19T14:59:00.725Z,19.50
2022-10-19T15:01:27.769Z,19.50
2022-10-19T15:03:55.417Z,19.50
2022-10-19T15:06:27.145Z,19.40
2022-10-19T15:08:59.902Z,19.40
2022-10-19T15:11:36.554Z,19.30
2022-10-19T15:14:12.423Z,19.30
2022-10-19T15:16:39.402Z,19.30
2022-10-19T15:19:14.840Z,19.30
2022-10-19T15:21:41.922Z,19.30
2022-10-19T15:24:36.183Z,19.20
2022-10-19T15:27:18.256Z,19.20
2022-10-19T15:30:00.603Z,19.20
2022-10-19T15:32:39.184Z,19.20
2022-10-19T15:35:34.871Z,19.10
2022-10-19T15:38:19.803Z,19.00
2022-10-19T15:40:55.105Z,18.90
2022-10-19T15:43:48.970Z,18.90
2022-10-19T15:46:31.957Z,18.80
2022-10-19T15:49:58.211Z,18.80
2022-10-19T15:52:34.490Z,18.60
2022-10-19T15:55:09.270Z,18.60
2022-10-19T15:57:39.305Z,18.60
2022-10-19T16:00:17.301Z,18.60
2022-10-19T16:02:45.378Z,18.60
2022-10-19T16:05:15.074Z,18.60
2022-10-19T16:07:43.153Z,18.50
2022-10-19T16:10:19.853Z,18.50
2022-10-19T16:12:50.915Z,18.50
2022-10-19T16:15:23.569Z,18.50
2022-10-19T16:17:54.076Z,18.40
2022-10-19T16:20:21.320Z,18.30
2022-10-19T16:22:48.850Z,18.40
2022-10-19T16:25:16.762Z,18.20
2022-10-19T16:27:44.398Z,18.20
2022-10-19T16:30:12.055Z,18.20
2022-10-19T16:35:12.767Z,18.10
2022-10-19T16:37:40.131Z,18.10
2022-10-19T16:40:08.051Z,18.10
2022-10-19T16:42:35.880Z,18.10
2022-10-19T16:45:03.886Z,18.00
2022-10-19T16:47:31.099Z,18.00
2022-10-19T16:50:02.821Z,17.90
2022-10-19T16:52:32.486Z,17.90
2022-10-19T16:55:00.485Z,17.90
2022-10-19T16:57:27.935Z,17.90
2022-10-19T16:59:55.541Z,17.90
2022-10-19T17:02:23.532Z,17.90
2022-10-19T17:04:50.872Z,17.90
2022-10-19T17:07:18.537Z,17.80
2022-10-19T17:09:47.201Z,17.80
2022-10-19T17:12:16.354Z,17.80
2022-10-19T17:14:43.749Z,17.70
2022-10-19T17:17:11.537Z,17.70
2022-10-19T17:19:39.543Z,17.70
2022-10-19T17:22:07.034Z,17.70
2022-10-19T17:24:38.141Z,17.70
2022-10-19T17:27:07.286Z,17.60
2022-10-19T17:29:35.323Z,17.60
2022-10-19T17:32:03.729Z,17.60
2022-10-19T17:34:31.717Z,17.60
2022-10-19T17:36:59.663Z,17.60
2022-10-19T17:39:29.901Z,17.60
2022-10-19T17:42:02.358Z,17.50
2022-10-19T17:44:32.196Z,17.40
2022-10-19T17:47:00.521Z,17.40
2022-10-19T17:49:30.334Z,17.40
2022-10-19T17:51:58.178Z,17.40
2022-10-19T17:54:26.467Z,17.40
2022-10-19T17:56:59.050Z,17.50
2022-10-19T17:59:34.995Z,17.40
2022-10-19T18:02:11.499Z,17.40
2022-10-19T18:04:41.144Z,17.30
2022-10-19T18:07:09.520Z,17.40
2022-10-19T18:09:37.732Z,17.40
2022-10-19T18:12:07.518Z,17.40
2022-10-19T18:14:35.551Z,17.40
2022-10-19T18:17:03.941Z,17.30
2022-10-19T18:19:33.288Z,17.20
2022-10-19T18:22:00.966Z,17.10
2022-10-19T18:24:29.901Z,17.20
2022-10-19T18:26:57.746Z,17.20
2022-10-19T18:29:28.711Z,17.20
2022-10-19T18:31:56.940Z,17.20
2022-10-19T18:34:27.010Z,17.10
2022-10-19T18:36:55.887Z,17.10
2022-10-19T18:39:25.292Z,17.00
2022-10-19T18:41:57.329Z,16.90
2022-10-19T18:44:26.648Z,16.90
2022-10-19T18:46:57.133Z,16.80
2022-10-19T18:49:25.377Z,16.80
2022-10-19T18:51:55.513Z,16.80
2022-10-19T18:54:26.731Z,16.70
2022-10-19T18:56:55.559Z,16.70
2022-10-19T18:59:24.135Z,16.70
2022-10-19T19:01:52.236Z,16.60
2022-10-19T19:04:20.035Z,16.50
2022-10-19T19:06:51.052Z,16.50
2022-10-19T19:09:21.698Z,16.50
2022-10-19T19:11:49.896Z,16.40
2022-10-19T19:14:23.081Z,16.40
2022-10-19T19:16:52.453Z,16.40
2022-10-19T19:19:23.691Z,16.40
2022-10-19T19:21:58.520Z,16.30
2022-10-19T19:24:38.954Z,16.30
2022-10-19T19:27:15.936Z,16.20
2022-10-19T19:29:54.668Z,16.20
2022-10-19T19:32:26.703Z,16.20
2022-10-19T19:35:06.777Z,15.90
2022-10-19T19:37:39.168Z,15.80
2022-10-19T19:40:08.060Z,15.80
2022-10-19T19:42:54.433Z,15.90
2022-10-19T19:45:29.799Z,15.90
2022-10-19T19:47:58.671Z,15.90
2022-10-19T19:50:46.913Z,15.80
2022-10-19T19:53:19.206Z,15.80
2022-10-19T19:55:57.173Z,15.80
2022-10-19T19:58:34.907Z,15.70
2022-10-19T20:01:28.825Z,15.70
2022-10-19T20:04:09.698Z,15.70
2022-10-19T20:06:55.155Z,15.70
2022-10-19T20:09:47.045Z,15.70
2022-10-19T20:12:18.155Z,15.80
2022-10-19T20:14:54.126Z,15.80
2022-10-19T20:17:42.791Z,15.70
2022-10-19T20:20:18.664Z,15.70
2022-10-19T20:23:00.936Z,15.60
2022-10-19T20:25:41.014Z,15.50
2022-10-19T20:28:12.846Z,15.60
2022-10-19T20:30:42.095Z,15.50
2022-10-19T20:33:13.353Z,15.50
2022-10-19T20:35:46.332Z,15.10
2022-10-19T20:38:16.952Z,15.00
2022-10-19T20:40:48.219Z,14.90
2022-10-19T20:43:21.593Z,14.70
2022-10-19T20:45:54.938Z,14.70
2022-10-19T20:48:31.744Z,14.70
2022-10-19T20:51:15.737Z,14.40
2022-10-19T20:53:51.914Z,14.30
2022-10-19T20:56:26.816Z,14.30
2022-10-19T20:59:09.275Z,14.30
2022-10-19T21:01:43.666Z,14.20
2022-10-19T21:04:15.661Z,14.00
2022-10-19T21:06:50.168Z,14.10
2022-10-19T21:09:28.287Z,14.00
2022-10-19T21:11:58.896Z,14.00
2022-10-19T21:14:37.512Z,14.00
2022-10-19T21:17:08.097Z,14.00
2022-10-19T21:19:35.777Z,13.80
2022-10-19T21:22:09.051Z,13.90
2022-10-19T21:24:41.434Z,13.60
2022-10-19T21:27:09.499Z,13.40
2022-10-19T21:29:37.797Z,13.30
2022-10-19T21:32:04.978Z,13.20
2022-10-19T21:34:32.330Z,13.20
2022-10-19T21:36:59.998Z,13.10
2022-10-19T21:39:27.161Z,13.10
2022-10-19T21:41:54.260Z,13.00
2022-10-19T21:44:23.232Z,13.00
2022-10-19T21:46:50.781Z,13.00
2022-10-19T21:49:17.920Z,13.00
2022-10-19T21:51:46.440Z,13.00
2022-10-19T21:54:22.278Z,13.00
2022-10-19T21:56:49.405Z,13.10
2022-10-19T21:59:16.922Z,12.90
2022-10-19T22:01:44.171Z,12.90
2022-10-19T22:04:17.003Z,12.90
2022-10-19T22:06:44.499Z,13.00
2022-10-19T22:09:18.820Z,12.90
2022-10-19T22:11:46.100Z,12.90
2022-10-19T22:14:14.859Z,12.90
2022-10-19T22:16:42.569Z,12.90
2022-10-19T22:19:10.215Z,12.90
2022-10-19T22:24:14.818Z,12.80
2022-10-19T22:26:44.882Z,12.80
2022-10-19T22:29:12.609Z,12.70
2022-10-19T22:31:39.873Z,12.70
2022-10-19T22:34:11.107Z,12.70
2022-10-19T22:36:38.397Z,12.60
2022-10-19T22:39:15.245Z,12.70
2022-10-19T22:41:54.404Z,12.70
2022-10-19T22:44:29.012Z,12.70
2022-10-19T22:47:01.515Z,12.70
2022-10-19T22:49:30.025Z,12.50
2022-10-19T22:52:04.846Z,12.40
2022-10-19T22:54:41.264Z,12.40
2022-10-19T22:57:19.740Z,12.40
2022-10-19T22:59:56.510Z,12.40
2022-10-19T23:02:32.657Z,12.40
2022-10-19T23:05:05.321Z,12.40
2022-10-19T23:07:42.400Z,12.40
2022-10-19T23:10:14.183Z,12.40
2022-10-19T23:12:57.685Z,12.30
2022-10-19T23:15:31.178Z,12.30
2022-10-19T23:18:09.021Z,12.30
2022-10-19T23:20:47.115Z,12.20
2022-10-19T23:23:24.641Z,12.20
2022-10-19T23:26:05.884Z,12.20
2022-10-19T23:28:48.575Z,12.20
2022-10-19T23:31:26.924Z,12.20
2022-10-19T23:33:55.995Z,12.20
2022-10-19T23:36:32.587Z,12.20
2022-10-19T23:39:08.013Z,12.20
2022-10-19T23:41:41.235Z,12.10
2022-10-19T23:44:10.425Z,12.00
2022-10-19T23:46:43.644Z,12.00
2022-10-19T23:49:14.841Z,12.00
2022-10-19T23:51:49.593Z,12.00
2022-10-19T23:54:33.091Z,12.00
2022-10-19T23:57:03.833Z,12.00
2022-10-19T23:59:35.349Z,12.00
